Time;durP1;ratioP1;P1;durP2;ratioP2;P2;SDS_P1;SDS_P2;PMS_P1;PMS_P2;Temp;Humidity;BMP_temperature;BMP_pressure;BME280_temperature;BME280_humidity;BME280_pressure;Samples;Min_cycle;Max_cycle;Signal;HPM_P1;HPM_P2
2022/12/10 00:00:03;;;;;;;23.30;20.90;;;;;20.10;99647.00;;;;2070304;28;20214;-60
2022/12/10 00:01:08;;;;;;;23.50;20.77;;;;;20.10;99650.00;;;;2075116;28;20213;-54
2022/12/10 00:02:09;;;;;;;21.35;19.20;;;;;20.10;99652.00;;;;2079349;28;20213;-54
2022/12/10 00:03:09;;;;;;;21.37;19.17;;;;;20.10;99656.00;;;;2080264;28;20209;-56
2022/12/10 00:04:10;;;;;;;22.27;19.97;;;;;20.10;99654.00;;;;2076215;28;20319;-55
2022/12/10 00:05:10;;;;;;;22.67;20.17;;;;;20.10;99664.00;;;;2079415;28;20209;-55
2022/12/10 00:06:13;;;;;;;22.10;19.70;;;;;20.10;99666.00;;;;2071698;28;20237;-55
2022/12/10 00:07:13;;;;;;;22.58;20.30;;;;;20.10;99661.00;;;;2071854;28;20210;-55
2022/12/10 00:08:14;;;;;;;20.17;18.10;;;;;20.10;99667.00;;;;2072175;28;20249;-56
2022/12/10 00:09:15;;;;;;;21.60;19.40;;;;;20.10;99656.00;;;;2077073;28;20222;-52
2022/12/10 00:10:16;;;;;;;21.55;19.45;;;;;20.10;99662.00;;;;2074583;28;20241;-55
2022/12/10 00:11:17;;;;;;;19.80;17.90;;;;;20.00;99660.00;;;;2075572;28;20213;-56
2022/12/10 00:12:17;;;;;;;21.77;19.50;;;;;20.00;99657.00;;;;2071930;28;20221;-55
2022/12/10 00:13:17;;;;;;;20.93;18.90;;;;;20.10;99669.00;;;;2071961;28;20388;-52
2022/12/10 00:14:18;;;;;;;22.27;19.80;;;;;20.00;99671.00;;;;2071794;28;20249;-56
2022/12/10 00:15:18;;;;;;;21.87;19.67;;;;;20.00;99662.00;;;;2072484;28;20300;-55
2022/12/10 00:16:19;;;;;;;20.50;18.50;;;;;20.00;99662.00;;;;2072545;28;20701;-53
2022/12/10 00:17:20;;;;;;;21.98;19.75;;;;;20.00;99657.00;;;;2071565;28;20222;-53
2022/12/10 00:18:20;;;;;;;26.80;19.30;;;;;20.00;99666.00;;;;2077206;28;20650;-55
2022/12/10 00:19:20;;;;;;;20.97;18.87;;;;;20.00;99672.00;;;;2077429;28;20592;-54
2022/12/10 00:20:21;;;;;;;21.47;19.17;;;;;20.00;99663.00;;;;2072363;28;20595;-54
2022/12/10 00:21:26;;;;;;;21.93;19.63;;;;;20.00;99661.00;;;;2072498;28;20575;-55
2022/12/10 00:22:27;;;;;;;21.60;19.33;;;;;19.90;99658.00;;;;2071081;28;20210;-54
2022/12/10 00:23:27;;;;;;;22.27;19.97;;;;;20.00;99655.00;;;;2072426;28;20228;-54
2022/12/10 00:24:27;;;;;;;20.20;18.10;;;;;19.90;99656.00;;;;2071362;28;20218;-52
2022/12/10 00:25:28;;;;;;;20.13;18.03;;;;;20.00;99660.00;;;;2071789;28;20267;-55
2022/12/10 00:26:33;;;;;;;20.00;18.00;;;;;20.00;99658.00;;;;2072341;28;20221;-53
2022/12/10 00:27:34;;;;;;;20.65;18.58;;;;;19.90;99656.00;;;;2072354;28;20210;-55
2022/12/10 00:28:34;;;;;;;19.77;17.87;;;;;19.90;99657.00;;;;2079296;28;20225;-55
2022/12/10 00:29:34;;;;;;;20.77;18.53;;;;;19.90;99657.00;;;;2077645;28;20201;-56
2022/12/10 00:30:35;;;;;;;19.70;17.80;;;;;19.90;99655.00;;;;2080345;28;20566;-55
2022/12/10 00:31:36;;;;;;;20.00;17.90;;;;;19.90;99651.00;;;;2076405;28;20713;-54
2022/12/10 00:32:36;;;;;;;18.73;16.83;;;;;19.90;99656.00;;;;2075078;28;20217;-55
2022/12/10 00:33:37;;;;;;;20.83;17.83;;;;;19.90;99654.00;;;;2071823;28;20333;-54
2022/12/10 00:34:37;;;;;;;20.30;18.23;;;;;19.90;99657.00;;;;2073342;28;20228;-60
2022/12/10 00:35:37;;;;;;;19.57;17.57;;;;;19.90;99654.00;;;;2080221;28;20244;-55
2022/12/10 00:36:43;;;;;;;19.93;17.83;;;;;19.90;99661.00;;;;2076695;28;20223;-55
2022/12/10 00:37:44;;;;;;;19.23;17.33;;;;;19.90;99659.00;;;;2073901;28;20206;-54
2022/12/10 00:38:44;;;;;;;19.10;17.10;;;;;19.90;99656.00;;;;2071361;28;20221;-51
2022/12/10 00:39:45;;;;;;;18.53;16.73;;;;;19.90;99658.00;;;;2070809;28;20209;-55
2022/12/10 00:40:45;;;;;;;18.90;17.00;;;;;19.90;99659.00;;;;2075127;28;20225;-55
2022/12/10 00:41:45;;;;;;;18.53;16.83;;;;;19.90;99658.00;;;;2073971;28;20229;-55
2022/12/10 00:42:46;;;;;;;18.97;17.07;;;;;19.90;99662.00;;;;2072256;28;20206;-55
2022/12/10 00:43:46;;;;;;;18.33;16.60;;;;;19.90;99658.00;;;;2072076;28;20202;-53
2022/12/10 00:44:46;;;;;;;19.10;17.10;;;;;19.90;99661.00;;;;2072726;28;20198;-54
2022/12/10 00:45:47;;;;;;;18.17;16.40;;;;;19.80;99659.00;;;;2076308;28;20233;-55
2022/12/10 00:46:47;;;;;;;19.80;17.80;;;;;19.80;99659.00;;;;2074014;28;20217;-55
2022/12/10 00:47:47;;;;;;;17.90;16.20;;;;;19.90;99662.00;;;;2072011;28;20269;-55
2022/12/10 00:48:48;;;;;;;17.23;15.53;;;;;19.80;99659.00;;;;2072419;28;20702;-55
2022/12/10 00:49:48;;;;;;;19.07;17.27;;;;;19.90;99663.00;;;;2080257;28;20577;-53
2022/12/10 00:51:03;;;;;;;17.90;16.00;;;;;19.80;99662.00;;;;2080036;28;20597;-54
2022/12/10 00:52:03;;;;;;;16.73;15.23;;;;;19.80;99660.00;;;;2079355;28;20287;-55
2022/12/10 00:53:03;;;;;;;18.13;16.43;;;;;19.80;99665.00;;;;2080247;28;20210;-55
2022/12/10 00:54:04;;;;;;;17.83;16.10;;;;;19.80;99668.00;;;;2079655;28;20732;-55
2022/12/10 00:55:04;;;;;;;19.00;17.13;;;;;19.80;99659.00;;;;2079255;28;20267;-55
2022/12/10 00:56:05;;;;;;;17.60;15.80;;;;;19.80;99660.00;;;;2071614;28;20297;-52
2022/12/10 00:57:05;;;;;;;18.20;16.50;;;;;19.90;99665.00;;;;2071374;28;20210;-55
2022/12/10 00:58:06;;;;;;;17.83;15.93;;;;;19.80;99661.00;;;;2071435;28;20479;-55
2022/12/10 00:59:06;;;;;;;18.10;16.30;;;;;19.80;99667.00;;;;2072117;28;20210;-55
2022/12/10 01:00:07;;;;;;;17.90;16.07;;;;;19.80;99663.00;;;;2071882;28;20210;-55
2022/12/10 01:01:16;;;;;;;17.83;16.13;;;;;19.80;99662.00;;;;2071973;28;20222;-55
2022/12/10 01:02:17;;;;;;;16.33;14.73;;;;;19.80;99674.00;;;;2074458;28;20445;-55
2022/12/10 01:03:17;;;;;;;17.47;15.80;;;;;19.90;99667.00;;;;2075082;28;20222;-52
2022/12/10 01:04:17;;;;;;;17.10;15.30;;;;;19.80;99667.00;;;;2071736;28;20240;-52
2022/12/10 01:05:18;;;;;;;18.47;16.57;;;;;19.80;99665.00;;;;2071807;28;20280;-55
2022/12/10 01:06:28;;;;;;;16.90;15.30;;;;;19.80;99674.00;;;;2072243;28;20218;-54
2022/12/10 01:07:29;;;;;;;18.35;16.55;;;;;19.80;99678.00;;;;2079852;28;20249;-54
2022/12/10 01:08:29;;;;;;;17.03;15.40;;;;;19.80;99664.00;;;;2079908;28;20821;-51
2022/12/10 01:09:30;;;;;;;16.87;15.17;;;;;19.80;99675.00;;;;2079904;28;20720;-54
2022/12/10 01:10:30;;;;;;;17.73;16.00;;;;;19.80;99673.00;;;;2080002;28;21024;-54
2022/12/10 01:11:33;;;;;;;17.50;15.80;;;;;19.80;99677.00;;;;2077574;28;20221;-56
2022/12/10 01:12:34;;;;;;;17.77;15.95;;;;;19.70;99676.00;;;;2070277;28;20283;-54
2022/12/10 01:13:34;;;;;;;16.40;14.90;;;;;19.70;99675.00;;;;2071311;28;20218;-55
2022/12/10 01:14:34;;;;;;;16.60;14.97;;;;;19.80;99672.00;;;;2071635;28;20292;-56
2022/12/10 01:15:39;;;;;;;17.43;15.77;;;;;19.70;99673.00;;;;2071776;28;20218;-55
2022/12/10 01:16:39;;;;;;;16.70;15.00;;;;;19.70;99673.00;;;;2071445;28;20222;-55
2022/12/10 01:17:39;;;;;;;17.67;15.80;;;;;19.70;99669.00;;;;2076348;28;20218;-55
2022/12/10 01:18:40;;;;;;;16.30;14.80;;;;;19.70;99673.00;;;;2079656;28;20216;-52
2022/12/10 01:19:40;;;;;;;16.97;15.30;;;;;19.80;99670.00;;;;2080002;28;20218;-52
2022/12/10 01:20:41;;;;;;;16.47;14.83;;;;;19.70;99671.00;;;;2073921;28;20271;-54
2022/12/10 01:21:41;;;;;;;17.07;15.37;;;;;19.70;99683.00;;;;2071840;28;20222;-52
2022/12/10 01:22:41;;;;;;;16.73;15.13;;;;;19.70;99673.00;;;;2071045;28;20777;-55
2022/12/10 01:23:43;;;;;;;15.80;14.30;;;;;19.70;99678.00;;;;2071612;28;20744;-54
2022/12/10 01:24:43;;;;;;;17.50;15.80;;;;;19.70;99676.00;;;;2071330;28;20206;-55
2022/12/10 01:25:43;;;;;;;15.53;14.03;;;;;19.70;99677.00;;;;2076026;28;20710;-55
2022/12/10 01:26:44;;;;;;;17.40;15.67;;;;;19.70;99678.00;;;;2079931;28;20639;-56
2022/12/10 01:27:44;;;;;;;17.17;15.37;;;;;19.70;99682.00;;;;2079881;28;20525;-52
2022/12/10 01:28:45;;;;;;;16.60;14.90;;;;;19.70;99684.00;;;;2078566;28;20287;-53
2022/12/10 01:29:45;;;;;;;16.73;15.10;;;;;19.70;99689.00;;;;2071828;28;20238;-55
2022/12/10 01:30:45;;;;;;;15.70;14.13;;;;;19.70;99688.00;;;;2071633;28;20709;-55
2022/12/10 01:31:47;;;;;;;17.60;15.90;;;;;19.70;99682.00;;;;2071326;28;20214;-53
2022/12/10 01:32:48;;;;;;;16.10;14.50;;;;;19.70;99679.00;;;;2062035;28;20607;-52
2022/12/10 01:33:48;;;;;;;17.20;15.40;;;;;19.70;99677.00;;;;2062018;28;20231;-54
2022/12/10 01:34:48;;;;;;;16.40;14.80;;;;;19.50;99678.00;;;;2071495;28;20714;-53
2022/12/10 01:35:49;;;;;;;15.53;14.10;;;;;19.60;99674.00;;;;2071663;28;20675;-54
2022/12/10 01:36:51;;;;;;;15.90;14.50;;;;;19.70;99674.00;;;;2070896;28;20226;-52
2022/12/10 01:37:51;;;;;;;15.82;14.43;;;;;19.70;99681.00;;;;2071517;28;20222;-53
2022/12/10 01:38:52;;;;;;;16.37;14.80;;;;;19.70;99672.00;;;;2076207;28;20280;-55
2022/12/10 01:39:52;;;;;;;16.67;14.97;;;;;19.60;99673.00;;;;2079636;28;20214;-55
2022/12/10 01:40:53;;;;;;;15.53;14.13;;;;;19.60;99681.00;;;;2079395;28;20220;-57
2022/12/10 01:41:58;;;;;;;16.20;14.60;;;;;19.60;99686.00;;;;2076608;28;20217;-52
2022/12/10 01:42:58;;;;;;;17.10;15.30;;;;;19.60;99689.00;;;;2079705;28;20237;-53
2022/12/10 01:44:00;;;;;;;16.90;15.23;;;;;19.60;99690.00;;;;2079335;28;20762;-55
2022/12/10 01:45:04;;;;;;;15.85;14.35;;;;;19.60;99689.00;;;;2079513;28;20209;-54
2022/12/10 01:46:04;;;;;;;15.38;13.90;;;;;19.70;99687.00;;;;2079559;28;20279;-54
2022/12/10 01:47:05;;;;;;;16.60;14.90;;;;;19.60;99687.00;;;;2079547;28;20256;-55
2022/12/10 01:48:05;;;;;;;15.27;13.97;;;;;19.60;99698.00;;;;2072726;28;20714;-55
2022/12/10 01:49:35;;;;;;;15.53;13.93;;;;;19.60;99694.00;;;;2062746;28;20203;-53
2022/12/10 01:50:36;;;;;;;16.80;15.23;;;;;19.60;99699.00;;;;2071740;28;20800;-53
2022/12/10 01:51:38;;;;;;;16.00;14.50;;;;;19.60;99695.00;;;;2079437;28;20205;-55
2022/12/10 01:52:38;;;;;;;15.27;13.77;;;;;19.60;99698.00;;;;2078986;28;20332;-54
2022/12/10 01:53:39;;;;;;;15.93;14.33;;;;;19.60;99699.00;;;;2078921;28;23055;-55
2022/12/10 01:54:41;;;;;;;14.23;12.93;;;;;19.60;99697.00;;;;2078519;28;20264;-53
2022/12/10 01:55:48;;;;;;;16.75;15.05;;;;;19.60;99692.00;;;;2079069;28;20224;-52
2022/12/10 01:56:50;;;;;;;17.58;15.80;;;;;19.60;99698.00;;;;2070563;28;20225;-53
2022/12/10 01:57:50;;;;;;;16.45;14.93;;;;;19.60;99699.00;;;;2070409;28;20210;-56
2022/12/10 01:58:53;;;;;;;15.17;13.67;;;;;19.60;99697.00;;;;2070684;28;20250;-55
2022/12/10 02:00:04;;;;;;;15.48;13.98;;;;;19.60;99696.00;;;;2070105;28;20714;-54
2022/12/10 02:01:23;;;;;;;16.25;14.65;;;;;19.50;99693.00;;;;2070831;28;20217;-55
2022/12/10 02:03:00;;;;;;;17.30;15.60;;;;;19.50;99704.00;;;;2071971;28;20217;-56
2022/12/10 02:04:25;;;;;;;14.63;13.23;;;;;19.60;99705.00;;;;2054089;28;20287;-52
2022/12/10 02:05:32;;;;;;;14.32;13.00;;;;;19.60;99703.00;;;;2061474;28;20219;-55
2022/12/10 02:06:58;;;;;;;16.10;14.50;;;;;19.60;99704.00;;;;2072713;28;20221;-56
2022/12/10 02:08:08;;;;;;;16.13;14.50;;;;;19.60;99699.00;;;;2079588;28;20233;-53
2022/12/10 02:09:17;;;;;;;16.45;14.85;;;;;19.60;99698.00;;;;2070700;28;20260;-55
2022/12/10 02:10:51;;;;;;;15.57;14.00;;;;;19.60;99694.00;;;;2071719;28;20238;-54
2022/12/10 02:11:55;;;;;;;16.63;15.02;;;;;19.60;99700.00;;;;2077367;28;20236;-60
2022/12/10 02:13:01;;;;;;;15.02;13.60;;;;;19.60;99704.00;;;;2078512;28;20213;-53
2022/12/10 02:14:26;;;;;;;15.50;14.02;;;;;19.60;99698.00;;;;2077732;28;20226;-55
2022/12/10 02:15:40;;;;;;;15.57;14.07;;;;;19.50;99705.00;;;;2056058;28;20309;-55
2022/12/10 02:16:42;;;;;;;15.18;13.77;;;;;19.50;99708.00;;;;2074873;28;20241;-54
2022/12/10 02:17:51;;;;;;;15.50;14.00;;;;;19.50;99698.00;;;;2078157;28;20217;-56
2022/12/10 02:18:55;;;;;;;14.40;12.98;;;;;19.50;99703.00;;;;2062398;28;20404;-52
2022/12/10 02:20:09;;;;;;;15.80;14.25;;;;;19.50;99710.00;;;;2062454;28;20700;-53
2022/12/10 02:21:30;;;;;;;16.30;14.80;;;;;19.50;99701.00;;;;2070734;28;20257;-53
2022/12/10 02:22:34;;;;;;;15.63;14.02;;;;;19.50;99706.00;;;;2060535;28;20721;-53
2022/12/10 02:23:41;;;;;;;15.80;14.30;;;;;19.50;99706.00;;;;2065008;28;20380;-55
2022/12/10 02:24:42;;;;;;;15.68;14.23;;;;;19.50;99704.00;;;;2063257;28;20778;-53
2022/12/10 02:25:59;;;;;;;15.30;13.90;;;;;19.50;99703.00;;;;2070100;28;20249;-55
2022/12/10 02:27:18;;;;;;;14.85;13.35;;;;;19.50;99700.00;;;;2070221;28;20217;-54
2022/12/10 02:28:37;;;;;;;15.63;14.13;;;;;19.50;99699.00;;;;2078112;28;20264;-55
2022/12/10 02:29:37;;;;;;;14.32;12.93;;;;;19.50;99701.00;;;;2064334;28;20328;-55
2022/12/10 02:30:37;;;;;;;16.47;14.97;;;;;19.50;99697.00;;;;2070607;28;20214;-56
2022/12/10 02:31:42;;;;;;;14.90;13.50;;;;;19.40;99699.00;;;;2069971;28;20218;-53
2022/12/10 02:32:43;;;;;;;15.15;13.75;;;;;19.50;99696.00;;;;2069549;28;20710;-54
2022/12/10 02:33:46;;;;;;;15.60;14.10;;;;;19.40;99690.00;;;;2070117;28;20238;-55
2022/12/10 02:34:49;;;;;;;15.45;13.95;;;;;19.40;99701.00;;;;2062439;28;20219;-55
2022/12/10 02:35:50;;;;;;;15.95;14.35;;;;;19.40;99696.00;;;;2070486;28;20614;-54
2022/12/10 02:36:51;;;;;;;16.48;14.10;;;;;19.40;99687.00;;;;2070080;28;20210;-51
2022/12/10 02:37:55;;;;;;;14.93;13.43;;;;;19.40;99702.00;;;;2069927;28;20238;-54
2022/12/10 02:38:55;;;;;;;15.25;13.77;;;;;19.40;99698.00;;;;2069256;28;20218;-55
2022/12/10 02:39:57;;;;;;;16.10;14.57;;;;;19.50;99695.00;;;;2070143;28;20242;-60
2022/12/10 02:41:05;;;;;;;15.82;14.32;;;;;19.50;99686.00;;;;2070391;28;20210;-55
2022/12/10 02:42:06;;;;;;;14.77;13.43;;;;;19.40;99693.00;;;;2070615;28;20643;-55
2022/12/10 02:43:06;;;;;;;15.77;14.27;;;;;19.40;99685.00;;;;2069413;28;20214;-54
2022/12/10 02:44:09;;;;;;;15.00;13.50;;;;;19.40;99682.00;;;;2070175;28;20290;-54
2022/12/10 02:45:10;;;;;;;16.25;14.65;;;;;19.40;99692.00;;;;2078268;28;20296;-54
2022/12/10 02:46:10;;;;;;;15.00;13.63;;;;;19.40;99689.00;;;;2070269;28;20946;-53
2022/12/10 02:47:11;;;;;;;15.50;14.00;;;;;19.40;99696.00;;;;2070213;28;20202;-52
2022/12/10 02:48:11;;;;;;;14.90;13.50;;;;;19.40;99693.00;;;;2070356;28;20264;-54
2022/12/10 02:49:12;;;;;;;15.57;14.10;;;;;19.40;99696.00;;;;2070075;28;20206;-54
2022/12/10 02:50:12;;;;;;;15.37;13.87;;;;;19.40;99689.00;;;;2078501;28;20680;-55
2022/12/10 02:51:12;;;;;;;14.50;13.10;;;;;19.30;99689.00;;;;2070051;28;20213;-55
2022/12/10 02:52:13;;;;;;;14.93;13.53;;;;;19.40;99699.00;;;;2077292;28;20226;-52
2022/12/10 02:53:14;;;;;;;15.47;14.07;;;;;19.40;99688.00;;;;2078368;28;20210;-55
2022/12/10 02:54:40;;;;;;;16.00;14.50;;;;;19.40;99680.00;;;;2078449;28;20538;-55
2022/12/10 02:56:14;;;;;;;15.13;13.38;;;;;19.40;99698.00;;;;2078896;28;20217;-55
2022/12/10 02:57:23;;;;;;;15.25;13.73;;;;;19.40;99697.00;;;;2079117;28;20225;-54
2022/12/10 02:58:52;;;;;;;14.57;13.07;;;;;19.40;99693.00;;;;2078023;28;20635;-55
2022/12/10 03:00:09;;;;;;;14.38;12.90;;;;;19.30;99693.00;;;;2074767;28;20228;-54
2022/12/10 03:01:34;;;;;;;14.85;13.50;;;;;19.40;99696.00;;;;2073490;28;20744;-54
2022/12/10 03:02:36;;;;;;;15.57;14.07;;;;;19.40;99693.00;;;;2073672;28;20214;-55
2022/12/10 03:03:41;;;;;;;14.85;13.50;;;;;19.40;99693.00;;;;2072968;28;20268;-55
2022/12/10 03:04:44;;;;;;;14.77;13.38;;;;;19.40;99696.00;;;;2066559;28;20293;-55
2022/12/10 03:05:56;;;;;;;15.55;14.05;;;;;19.40;99700.00;;;;2070215;28;20214;-55
2022/12/10 03:07:00;;;;;;;14.05;12.75;;;;;19.40;99700.00;;;;2070245;28;20211;-56
2022/12/10 03:08:12;;;;;;;16.52;14.93;;;;;19.40;99703.00;;;;2069950;28;20226;-59
2022/12/10 03:09:21;;;;;;;15.70;14.30;;;;;19.30;99701.00;;;;2070906;28;20217;-54
2022/12/10 03:10:29;;;;;;;15.40;14.00;;;;;19.30;99706.00;;;;2061866;28;20253;-53
2022/12/10 03:11:30;;;;;;;16.33;14.73;;;;;19.30;99703.00;;;;2064083;28;20926;-55
2022/12/10 03:12:39;;;;;;;16.30;14.63;;;;;19.40;99696.00;;;;2069757;28;20360;-53
2022/12/10 03:13:54;;;;;;;15.25;13.85;;;;;19.40;99710.00;;;;2070639;28;20300;-53
2022/12/10 03:14:58;;;;;;;14.43;12.98;;;;;19.40;99706.00;;;;2076360;28;20252;-53
2022/12/10 03:15:58;;;;;;;15.35;13.93;;;;;19.40;99707.00;;;;2069999;28;20226;-55
2022/12/10 03:17:00;;;;;;;15.13;13.70;;;;;19.30;99705.00;;;;2069121;28;20272;-52
2022/12/10 03:18:04;;;;;;;15.40;13.90;;;;;19.30;99705.00;;;;2070127;28;21053;-55
2022/12/10 03:19:07;;;;;;;14.25;12.95;;;;;19.30;99700.00;;;;2067814;28;20245;-57
2022/12/10 03:20:08;;;;;;;15.13;13.70;;;;;19.30;99709.00;;;;2069896;28;20686;-56
2022/12/10 03:21:08;;;;;;;14.20;12.90;;;;;19.20;99707.00;;;;2069902;28;21166;-53
2022/12/10 03:22:09;;;;;;;14.23;12.90;;;;;19.30;99695.00;;;;2066283;28;20222;-54
2022/12/10 03:23:11;;;;;;;15.17;13.80;;;;;19.30;99705.00;;;;2061618;28;20334;-54
2022/12/10 03:24:11;;;;;;;14.63;13.32;;;;;19.30;99707.00;;;;2066477;28;20321;-54
2022/12/10 03:25:13;;;;;;;14.77;13.47;;;;;19.30;99706.00;;;;2069643;28;20229;-54
2022/12/10 03:26:14;;;;;;;15.38;13.85;;;;;19.30;99710.00;;;;2076394;28;20213;-53
2022/12/10 03:27:16;;;;;;;14.60;13.20;;;;;19.30;99710.00;;;;2069878;28;20438;-56
2022/12/10 03:28:18;;;;;;;13.55;12.32;;;;;19.30;99710.00;;;;2077914;28;20221;-55
2022/12/10 03:29:22;;;;;;;15.02;13.55;;;;;19.30;99710.00;;;;2070019;28;20218;-55
2022/12/10 03:30:23;;;;;;;14.60;13.30;;;;;19.30;99709.00;;;;2070472;28;20210;-55
2022/12/10 03:31:23;;;;;;;14.17;12.87;;;;;19.30;99714.00;;;;2069728;28;20225;-52
2022/12/10 03:32:25;;;;;;;14.43;13.10;;;;;19.40;99718.00;;;;2076904;28;20221;-54
2022/12/10 03:33:26;;;;;;;15.25;13.73;;;;;19.30;99719.00;;;;2078013;28;20263;-55
2022/12/10 03:34:26;;;;;;;13.17;11.87;;;;;19.30;99721.00;;;;2077505;28;20320;-54
2022/12/10 03:35:26;;;;;;;14.50;13.00;;;;;19.30;99724.00;;;;2077163;28;20232;-55
2022/12/10 03:36:27;;;;;;;14.70;13.30;;;;;19.30;99725.00;;;;2069280;28;20213;-55
2022/12/10 03:37:27;;;;;;;14.20;12.90;;;;;19.30;99720.00;;;;2077565;28;20209;-56
2022/12/10 03:38:27;;;;;;;14.33;13.03;;;;;19.30;99724.00;;;;2069537;28;20265;-52
2022/12/10 03:39:28;;;;;;;14.80;13.40;;;;;19.30;99725.00;;;;2077813;28;20263;-55
2022/12/10 03:40:28;;;;;;;14.33;13.03;;;;;19.30;99722.00;;;;2077458;28;20594;-56
2022/12/10 03:41:28;;;;;;;13.93;12.63;;;;;19.30;99724.00;;;;2069436;28;20756;-52
2022/12/10 03:42:29;;;;;;;13.80;12.50;;;;;19.30;99727.00;;;;2076796;28;20240;-55
2022/12/10 03:43:29;;;;;;;14.87;13.30;;;;;19.20;99732.00;;;;2070941;28;20336;-55
2022/12/10 03:44:31;;;;;;;14.53;13.20;;;;;19.20;99736.00;;;;2076902;28;20232;-56
2022/12/10 03:45:31;;;;;;;14.52;13.13;;;;;19.20;99730.00;;;;2069566;28;20642;-55
2022/12/10 03:46:32;;;;;;;15.00;13.63;;;;;19.30;99724.00;;;;2069750;28;20228;-53
2022/12/10 03:47:32;;;;;;;14.00;12.60;;;;;19.30;99727.00;;;;2069841;28;20225;-55
2022/12/10 03:48:32;;;;;;;14.43;13.03;;;;;19.20;99732.00;;;;2069444;28;20215;-55
2022/12/10 03:49:33;;;;;;;13.50;12.20;;;;;19.20;99720.00;;;;2069802;28;20644;-55
2022/12/10 03:50:33;;;;;;;15.67;14.10;;;;;19.20;99723.00;;;;2073335;28;20840;-56
2022/12/10 03:51:34;;;;;;;15.00;13.60;;;;;19.20;99728.00;;;;2078031;28;20248;-56
2022/12/10 03:52:34;;;;;;;13.73;12.43;;;;;19.20;99723.00;;;;2078176;28;20225;-55
2022/12/10 03:53:34;;;;;;;13.60;12.30;;;;;19.30;99719.00;;;;2077746;28;20221;-52
2022/12/10 03:54:35;;;;;;;15.27;13.77;;;;;19.20;99725.00;;;;2077733;28;20245;-53
2022/12/10 03:55:35;;;;;;;13.73;12.43;;;;;19.30;99725.00;;;;2072836;28;20217;-54
2022/12/10 03:56:35;;;;;;;15.23;13.73;;;;;19.20;99726.00;;;;2070677;28;20214;-56
2022/12/10 03:57:36;;;;;;;15.57;14.07;;;;;19.20;99727.00;;;;2070676;28;20822;-54
2022/12/10 03:58:36;;;;;;;15.20;13.70;;;;;19.20;99720.00;;;;2069829;28;20643;-56
2022/12/10 03:59:37;;;;;;;14.33;13.03;;;;;19.20;99725.00;;;;2070513;28;20293;-52
2022/12/10 04:00:37;;;;;;;15.50;14.00;;;;;19.20;99723.00;;;;2069857;28;20285;-54
2022/12/10 04:01:37;;;;;;;14.20;12.70;;;;;19.20;99724.00;;;;2074404;28;20216;-55
2022/12/10 04:02:38;;;;;;;14.33;13.00;;;;;19.20;99724.00;;;;2068716;28;20218;-56
2022/12/10 04:03:39;;;;;;;13.80;12.50;;;;;19.20;99721.00;;;;2068785;28;20710;-58
2022/12/10 04:04:40;;;;;;;14.27;12.95;;;;;19.20;99721.00;;;;2075121;28;20471;-55
2022/12/10 04:05:40;;;;;;;15.40;13.50;;;;;19.20;99720.00;;;;2078733;28;20667;-54
2022/12/10 04:06:40;;;;;;;13.57;12.30;;;;;19.20;99728.00;;;;2078570;28;20771;-52
2022/12/10 04:07:41;;;;;;;15.17;13.77;;;;;19.20;99727.00;;;;2078695;28;20641;-56
2022/12/10 04:08:41;;;;;;;14.87;13.20;;;;;19.20;99730.00;;;;2078451;28;20244;-53
2022/12/10 04:09:41;;;;;;;14.47;13.00;;;;;19.20;99723.00;;;;2078590;28;20210;-53
2022/12/10 04:10:42;;;;;;;14.77;13.37;;;;;19.20;99714.00;;;;2078678;28;20215;-55
2022/12/10 04:11:43;;;;;;;15.97;14.40;;;;;19.20;99719.00;;;;2078580;28;20210;-54
2022/12/10 04:16:26;;;;;;;14.63;13.23;;;;;19.20;99727.00;;;;2078142;28;20297;-56
2022/12/10 04:16:41;;;;;;;15.10;13.70;;;;;19.20;99728.00;;;;2070222;28;20218;-57
2022/12/10 04:17:41;;;;;;;14.20;12.80;;;;;19.20;99727.00;;;;2070319;28;20214;-55
2022/12/10 04:18:42;;;;;;;14.07;12.77;;;;;19.20;99726.00;;;;2069787;28;20218;-53
2022/12/10 04:19:42;;;;;;;14.97;13.57;;;;;19.20;99732.00;;;;2070373;28;20217;-54
2022/12/10 04:27:17;;;;;;;13.93;12.63;;;;;19.10;99713.00;;;;2075701;28;20225;-53
2022/12/10 04:28:18;;;;;;;14.95;13.55;;;;;19.10;99714.00;;;;2077037;28;20703;-56
2022/12/10 04:29:28;;;;;;;13.57;12.20;;;;;19.20;99717.00;;;;2077190;28;20224;-55
2022/12/10 04:30:28;;;;;;;14.25;12.85;;;;;19.10;99716.00;;;;2077811;28;20210;-53
2022/12/10 04:31:28;;;;;;;14.40;13.03;;;;;19.10;99720.00;;;;2077961;28;20218;-53
2022/12/10 04:32:29;;;;;;;14.27;12.90;;;;;19.10;99718.00;;;;2077135;28;20217;-55
2022/12/10 04:33:29;;;;;;;14.83;13.43;;;;;19.10;99720.00;;;;2077822;28;20228;-53
2022/12/10 04:34:29;;;;;;;14.80;13.30;;;;;19.20;99713.00;;;;2077568;28;20225;-54
2022/12/10 04:35:30;;;;;;;12.97;11.77;;;;;19.10;99716.00;;;;2078025;28;20308;-54
2022/12/10 04:36:30;;;;;;;13.43;12.23;;;;;19.10;99713.00;;;;2077625;28;20557;-53
2022/12/10 04:37:30;;;;;;;13.23;11.93;;;;;19.10;99718.00;;;;2073173;28;20569;-53
2022/12/10 04:38:31;;;;;;;14.10;12.90;;;;;19.20;99718.00;;;;2069494;28;20760;-54
2022/12/10 04:39:31;;;;;;;13.83;12.53;;;;;19.20;99717.00;;;;2069185;28;20694;-55
2022/12/10 04:40:31;;;;;;;13.60;12.30;;;;;19.20;99720.00;;;;2070247;28;20599;-54
2022/12/10 04:41:32;;;;;;;12.40;11.27;;;;;19.10;99715.00;;;;2069654;28;20751;-56
2022/12/10 04:42:32;;;;;;;13.50;12.20;;;;;19.10;99719.00;;;;2069452;28;20628;-55
2022/12/10 04:43:33;;;;;;;14.47;13.17;;;;;19.10;99716.00;;;;2070366;28;20237;-55
2022/12/10 04:44:33;;;;;;;14.20;12.80;;;;;19.10;99721.00;;;;2069757;28;20219;-53
2022/12/10 04:45:34;;;;;;;14.40;12.90;;;;;19.10;99717.00;;;;2069746;28;20210;-54
2022/12/10 04:46:35;;;;;;;14.02;12.73;;;;;19.10;99717.00;;;;2070204;28;20223;-55
2022/12/10 04:47:35;;;;;;;13.87;12.57;;;;;19.10;99720.00;;;;2071316;28;20297;-52
2022/12/10 04:48:36;;;;;;;13.83;12.53;;;;;19.10;99719.00;;;;2071930;28;20221;-55
2022/12/10 04:49:36;;;;;;;13.40;12.10;;;;;19.10;99721.00;;;;2072044;28;20226;-55
2022/12/10 04:50:36;;;;;;;14.33;12.90;;;;;19.10;99714.00;;;;2072117;28;20214;-56
2022/12/10 04:51:37;;;;;;;13.87;12.57;;;;;19.10;99714.00;;;;2071957;28;20364;-55
2022/12/10 04:52:37;;;;;;;13.30;12.10;;;;;19.10;99714.00;;;;2070283;28;20229;-56
2022/12/10 04:53:37;;;;;;;13.10;11.87;;;;;19.10;99718.00;;;;2071834;28;20738;-56
2022/12/10 04:54:38;;;;;;;14.20;12.90;;;;;19.10;99705.00;;;;2078744;28;20759;-53
2022/12/10 04:55:38;;;;;;;12.30;11.20;;;;;19.10;99711.00;;;;2073987;28;20218;-54
2022/12/10 04:56:39;;;;;;;12.90;11.70;;;;;19.10;99716.00;;;;2065581;28;20233;-54
2022/12/10 04:57:39;;;;;;;13.47;12.13;;;;;19.10;99719.00;;;;2071509;28;20218;-53
2022/12/10 04:58:39;;;;;;;13.20;12.00;;;;;19.10;99717.00;;;;2071854;28;20244;-55
2022/12/10 04:59:40;;;;;;;13.90;12.50;;;;;19.10;99714.00;;;;2070404;28;20668;-51
2022/12/10 05:00:40;;;;;;;14.87;13.37;;;;;19.10;99717.00;;;;2071874;28;20237;-53
2022/12/10 05:01:40;;;;;;;14.17;12.87;;;;;19.00;99718.00;;;;2071887;28;20222;-55
2022/12/10 05:02:41;;;;;;;12.77;11.57;;;;;19.10;99722.00;;;;2070775;28;20221;-54
2022/12/10 05:03:41;;;;;;;13.60;12.30;;;;;19.10;99724.00;;;;2071875;28;20218;-54
2022/12/10 05:04:41;;;;;;;13.83;12.43;;;;;19.00;99719.00;;;;2069890;28;20302;-55
2022/12/10 05:05:42;;;;;;;13.50;12.20;;;;;19.00;99723.00;;;;2071990;28;20218;-55
2022/12/10 05:06:42;;;;;;;12.70;11.40;;;;;19.00;99728.00;;;;2071106;28;20214;-54
2022/12/10 05:07:42;;;;;;;12.53;11.33;;;;;19.00;99733.00;;;;2071784;28;20619;-53
2022/12/10 05:08:43;;;;;;;12.93;11.83;;;;;19.00;99734.00;;;;2071937;28;20701;-55
2022/12/10 05:09:43;;;;;;;13.20;12.00;;;;;19.00;99733.00;;;;2071812;28;20759;-55
2022/12/10 05:10:43;;;;;;;13.60;12.30;;;;;19.00;99730.00;;;;2071651;28;20694;-55
2022/12/10 05:11:44;;;;;;;14.87;13.47;;;;;19.10;99734.00;;;;2079636;28;20883;-56
2022/12/10 05:12:44;;;;;;;13.90;12.60;;;;;19.10;99739.00;;;;2078606;28;20678;-54
2022/12/10 05:13:44;;;;;;;13.20;11.90;;;;;19.10;99729.00;;;;2073636;28;20214;-52
2022/12/10 05:14:45;;;;;;;15.53;13.10;;;;;19.10;99735.00;;;;2069182;28;20210;-53
2022/12/10 05:15:45;;;;;;;13.20;11.90;;;;;19.10;99734.00;;;;2071992;28;20217;-55